sensor_id;sensor_type;location;lat;lon;timestamp;pressure;altitude;pressure_sealevel;temperature
64624;BMP280;51031;50.912;9.242;2022-08-11T00:00:03;99788.75;;;28.79
64624;BMP280;51031;50.912;9.242;2022-08-11T00:00:31;99784.19;;;28.79
64624;BMP280;51031;50.912;9.242;2022-08-11T00:00:48;99784.19;;;28.79
64624;BMP280;51031;50.912;9.242;2022-08-11T00:01:07;99782.50;;;28.78
64624;BMP280;51031;50.912;9.242;2022-08-11T00:01:25;99789.59;;;28.79
64624;BMP280;51031;50.912;9.242;2022-08-11T00:01:46;99794.97;;;28.79
64624;BMP280;51031;50.912;9.242;2022-08-11T00:02:03;99786.91;;;28.79
64624;BMP280;51031;50.912;9.242;2022-08-11T00:02:26;99797.69;;;28.79
64624;BMP280;51031;50.912;9.242;2022-08-11T00:02:45;99790.59;;;28.78
64624;BMP280;51031;50.912;9.242;2022-08-11T00:03:04;99793.28;;;28.78
64624;BMP280;51031;50.912;9.242;2022-08-11T00:03:22;99787.06;;;28.78
64624;BMP280;51031;50.912;9.242;2022-08-11T00:03:43;99787.88;;;28.78
64624;BMP280;51031;50.912;9.242;2022-08-11T00:04:03;99794.31;;;28.77
64624;BMP280;51031;50.912;9.242;2022-08-11T00:04:22;99797.00;;;28.77
64624;BMP280;51031;50.912;9.242;2022-08-11T00:04:39;99793.47;;;28.77
64624;BMP280;51031;50.912;9.242;2022-08-11T00:05:02;99790.59;;;28.78
64624;BMP280;51031;50.912;9.242;2022-08-11T00:05:20;99800.53;;;28.78
64624;BMP280;51031;50.912;9.242;2022-08-11T00:05:43;99798.69;;;28.78
64624;BMP280;51031;50.912;9.242;2022-08-11T00:06:00;99791.63;;;28.77
64624;BMP280;51031;50.912;9.242;2022-08-11T00:06:23;99791.63;;;28.77
64624;BMP280;51031;50.912;9.242;2022-08-11T00:06:40;99797.00;;;28.77
64624;BMP280;51031;50.912;9.242;2022-08-11T00:07:01;99803.25;;;28.78
64624;BMP280;51031;50.912;9.242;2022-08-11T00:07:18;99790.78;;;28.77
64624;BMP280;51031;50.912;9.242;2022-08-11T00:07:41;99794.50;;;28.76
64624;BMP280;51031;50.912;9.242;2022-08-11T00:07:58;99798.88;;;28.77
64624;BMP280;51031;50.912;9.242;2022-08-11T00:08:20;99795.34;;;28.76
64624;BMP280;51031;50.912;9.242;2022-08-11T00:08:37;99794.50;;;28.76
64624;BMP280;51031;50.912;9.242;2022-08-11T00:08:54;99796.38;;;28.75
64624;BMP280;51031;50.912;9.242;2022-08-11T00:09:12;99794.50;;;28.76
64624;BMP280;51031;50.912;9.242;2022-08-11T00:09:32;99794.50;;;28.76
64624;BMP280;51031;50.912;9.242;2022-08-11T00:09:48;99793.66;;;28.75
64624;BMP280;51031;50.912;9.242;2022-08-11T00:10:09;99798.19;;;28.75
64624;BMP280;51031;50.912;9.242;2022-08-11T00:10:27;99793.66;;;28.75
64624;BMP280;51031;50.912;9.242;2022-08-11T00:10:51;99794.50;;;28.76
64624;BMP280;51031;50.912;9.242;2022-08-11T00:11:11;99792.81;;;28.75
64624;BMP280;51031;50.912;9.242;2022-08-11T00:11:36;99796.38;;;28.75
64624;BMP280;51031;50.912;9.242;2022-08-11T00:11:53;99798.19;;;28.75
64624;BMP280;51031;50.912;9.242;2022-08-11T00:12:13;99793.00;;;28.73
64624;BMP280;51031;50.912;9.242;2022-08-11T00:12:29;99790.28;;;28.73
64624;BMP280;51031;50.912;9.242;2022-08-11T00:12:52;99803.78;;;28.73
64624;BMP280;51031;50.912;9.242;2022-08-11T00:13:10;99787.41;;;28.75
64624;BMP280;51031;50.912;9.242;2022-08-11T00:13:31;99794.84;;;28.73
64624;BMP280;51031;50.912;9.242;2022-08-11T00:13:48;99790.28;;;28.73
64624;BMP280;51031;50.912;9.242;2022-08-11T00:14:12;99792.16;;;28.73
64624;BMP280;51031;50.912;9.242;2022-08-11T00:14:30;99794.84;;;28.73
64624;BMP280;51031;50.912;9.242;2022-08-11T00:14:56;99791.31;;;28.72
64624;BMP280;51031;50.912;9.242;2022-08-11T00:15:12;99795.00;;;28.71
64624;BMP280;51031;50.912;9.242;2022-08-11T00:15:44;99801.09;;;28.73
64624;BMP280;51031;50.912;9.242;2022-08-11T00:16:01;99795.69;;;28.73
64624;BMP280;51031;50.912;9.242;2022-08-11T00:16:20;99789.47;;;28.73
64624;BMP280;51031;50.912;9.242;2022-08-11T00:16:37;99800.25;;;28.73
64624;BMP280;51031;50.912;9.242;2022-08-11T00:16:56;99794.84;;;28.73
64624;BMP280;51031;50.912;9.242;2022-08-11T00:17:13;99788.63;;;28.72
64624;BMP280;51031;50.912;9.242;2022-08-11T00:17:31;99795.69;;;28.73
64624;BMP280;51031;50.912;9.242;2022-08-11T00:17:49;99798.38;;;28.73
64624;BMP280;51031;50.912;9.242;2022-08-11T00:18:12;99794.03;;;28.72
64624;BMP280;51031;50.912;9.242;2022-08-11T00:18:29;99794.84;;;28.73
64624;BMP280;51031;50.912;9.242;2022-08-11T00:18:54;99795.69;;;28.73
64624;BMP280;51031;50.912;9.242;2022-08-11T00:19:11;99800.25;;;28.73
64624;BMP280;51031;50.912;9.242;2022-08-11T00:19:28;99793.00;;;28.73
64624;BMP280;51031;50.912;9.242;2022-08-11T00:19:47;99800.91;;;28.75
64624;BMP280;51031;50.912;9.242;2022-08-11T00:20:07;99795.69;;;28.73
64624;BMP280;51031;50.912;9.242;2022-08-11T00:20:29;99797.34;;;28.74
64624;BMP280;51031;50.912;9.242;2022-08-11T00:20:46;99799.91;;;28.76
64624;BMP280;51031;50.912;9.242;2022-08-11T00:21:02;99799.06;;;28.75
64624;BMP280;51031;50.912;9.242;2022-08-11T00:21:20;99786.75;;;28.73
64624;BMP280;51031;50.912;9.242;2022-08-11T00:21:40;99795.50;;;28.75
64624;BMP280;51031;50.912;9.242;2022-08-11T00:21:58;99803.59;;;28.75
64624;BMP280;51031;50.912;9.242;2022-08-11T00:22:19;99793.66;;;28.75
64624;BMP280;51031;50.912;9.242;2022-08-11T00:22:37;99793.00;;;28.73
64624;BMP280;51031;50.912;9.242;2022-08-11T00:23:00;99797.34;;;28.74
64624;BMP280;51031;50.912;9.242;2022-08-11T00:23:18;99794.03;;;28.72
64624;BMP280;51031;50.912;9.242;2022-08-11T00:23:39;99794.84;;;28.73
64624;BMP280;51031;50.912;9.242;2022-08-11T00:23:57;99791.31;;;28.72
64624;BMP280;51031;50.912;9.242;2022-08-11T00:24:15;99795.00;;;28.71
64624;BMP280;51031;50.912;9.242;2022-08-11T00:24:33;99795.88;;;28.72
64624;BMP280;51031;50.912;9.242;2022-08-11T00:24:50;99789.63;;;28.71
64624;BMP280;51031;50.912;9.242;2022-08-11T00:25:10;99791.47;;;28.71
64624;BMP280;51031;50.912;9.242;2022-08-11T00:25:27;99798.75;;;28.70
64624;BMP280;51031;50.912;9.242;2022-08-11T00:25:46;99798.75;;;28.70
64624;BMP280;51031;50.912;9.242;2022-08-11T00:26:05;99793.34;;;28.70
64624;BMP280;51031;50.912;9.242;2022-08-11T00:26:22;99792.50;;;28.70
64624;BMP280;51031;50.912;9.242;2022-08-11T00:26:38;99791.69;;;28.70
64624;BMP280;51031;50.912;9.242;2022-08-11T00:26:54;99787.94;;;28.70
64624;BMP280;51031;50.912;9.242;2022-08-11T00:27:11;99796.03;;;28.70
64624;BMP280;51031;50.912;9.242;2022-08-11T00:27:31;99795.22;;;28.70
64624;BMP280;51031;50.912;9.242;2022-08-11T00:27:48;99790.66;;;28.70
64624;BMP280;51031;50.912;9.242;2022-08-11T00:28:22;99791.69;;;28.70
64624;BMP280;51031;50.912;9.242;2022-08-11T00:28:38;99788.97;;;28.70
64624;BMP280;51031;50.912;9.242;2022-08-11T00:28:56;99799.75;;;28.70
64624;BMP280;51031;50.912;9.242;2022-08-11T00:29:22;99795.41;;;28.69
64624;BMP280;51031;50.912;9.242;2022-08-11T00:29:38;99798.94;;;28.69
64624;BMP280;51031;50.912;9.242;2022-08-11T00:29:54;99802.63;;;28.68
64624;BMP280;51031;50.912;9.242;2022-08-11T00:30:11;99796.38;;;28.68
64624;BMP280;51031;50.912;9.242;2022-08-11T00:30:37;99795.41;;;28.69
64624;BMP280;51031;50.912;9.242;2022-08-11T00:30:54;99793.69;;;28.68
64624;BMP280;51031;50.912;9.242;2022-08-11T00:31:21;99793.69;;;28.68
64624;BMP280;51031;50.912;9.242;2022-08-11T00:31:43;99799.09;;;28.68
64624;BMP280;51031;50.912;9.242;2022-08-11T00:32:03;99789.13;;;28.68
64624;BMP280;51031;50.912;9.242;2022-08-11T00:32:19;99791.00;;;28.68
64624;BMP280;51031;50.912;9.242;2022-08-11T00:32:37;99789.31;;;28.67
64624;BMP280;51031;50.912;9.242;2022-08-11T00:32:55;99787.66;;;28.66
64624;BMP280;51031;50.912;9.242;2022-08-11T00:33:13;99786.81;;;28.65
64624;BMP280;51031;50.912;9.242;2022-08-11T00:33:33;99785.13;;;28.64
64624;BMP280;51031;50.912;9.242;2022-08-11T00:33:50;99795.06;;;28.64
64624;BMP280;51031;50.912;9.242;2022-08-11T00:34:10;99789.03;;;28.62
64624;BMP280;51031;50.912;9.242;2022-08-11T00:34:29;99798.13;;;28.61
64624;BMP280;51031;50.912;9.242;2022-08-11T00:34:47;99793.75;;;28.60
64624;BMP280;51031;50.912;9.242;2022-08-11T00:35:04;99801.84;;;28.60
64624;BMP280;51031;50.912;9.242;2022-08-11T00:35:25;99798.31;;;28.59
64624;BMP280;51031;50.912;9.242;2022-08-11T00:35:42;99791.25;;;28.58
64624;BMP280;51031;50.912;9.242;2022-08-11T00:36:02;99811.94;;;28.58
64624;BMP280;51031;50.912;9.242;2022-08-11T00:36:21;99807.59;;;28.57
64624;BMP280;51031;50.912;9.242;2022-08-11T00:36:42;99797.81;;;28.56
64624;BMP280;51031;50.912;9.242;2022-08-11T00:37:02;99789.91;;;28.54
64624;BMP280;51031;50.912;9.242;2022-08-11T00:37:20;99803.56;;;28.53
64624;BMP280;51031;50.912;9.242;2022-08-11T00:37:38;99807.28;;;28.52
64624;BMP280;51031;50.912;9.242;2022-08-11T00:37:54;99802.88;;;28.51
64624;BMP280;51031;50.912;9.242;2022-08-11T00:38:11;99802.25;;;28.49
64624;BMP280;51031;50.912;9.242;2022-08-11T00:38:31;99807.63;;;28.49
64624;BMP280;51031;50.912;9.242;2022-08-11T00:38:50;99800.53;;;28.48
64624;BMP280;51031;50.912;9.242;2022-08-11T00:39:09;99800.53;;;28.48
64624;BMP280;51031;50.912;9.242;2022-08-11T00:39:26;99798.88;;;28.47
64624;BMP280;51031;50.912;9.242;2022-08-11T00:39:44;99802.59;;;28.46
64624;BMP280;51031;50.912;9.242;2022-08-11T00:40:02;99794.63;;;28.44
64624;BMP280;51031;50.912;9.242;2022-08-11T00:40:27;99799.53;;;28.41
64624;BMP280;51031;50.912;9.242;2022-08-11T00:40:54;99800.56;;;28.40
64624;BMP280;51031;50.912;9.242;2022-08-11T00:41:21;99797.22;;;28.38
64624;BMP280;51031;50.912;9.242;2022-08-11T00:41:46;99800.91;;;28.37
64624;BMP280;51031;50.912;9.242;2022-08-11T00:42:10;99807.31;;;28.36
64624;BMP280;51031;50.912;9.242;2022-08-11T00:42:42;99800.25;;;28.35
64624;BMP280;51031;50.912;9.242;2022-08-11T00:43:07;99801.25;;;28.34
64624;BMP280;51031;50.912;9.242;2022-08-11T00:43:40;99790.66;;;28.33
64624;BMP280;51031;50.912;9.242;2022-08-11T00:44:29;99798.94;;;28.31
64624;BMP280;51031;50.912;9.242;2022-08-11T00:44:58;99796.25;;;28.31
64624;BMP280;51031;50.912;9.242;2022-08-11T00:45:21;99794.53;;;28.30
64624;BMP280;51031;50.912;9.242;2022-08-11T00:45:41;99800.94;;;28.29
64624;BMP280;51031;50.912;9.242;2022-08-11T00:46:15;99801.78;;;28.30
64624;BMP280;51031;50.912;9.242;2022-08-11T00:46:44;99794.72;;;28.29
64624;BMP280;51031;50.912;9.242;2022-08-11T00:47:13;99800.13;;;28.29
64624;BMP280;51031;50.912;9.242;2022-08-11T00:47:45;99801.97;;;28.28
64624;BMP280;51031;50.912;9.242;2022-08-11T00:48:07;99804.66;;;28.28
64624;BMP280;51031;50.912;9.242;2022-08-11T00:48:30;99799.28;;;28.28
64624;BMP280;51031;50.912;9.242;2022-08-11T00:48:57;99790.34;;;28.28
64624;BMP280;51031;50.912;9.242;2022-08-11T00:49:23;99801.13;;;28.28
64624;BMP280;51031;50.912;9.242;2022-08-11T00:49:50;99800.47;;;28.26
64624;BMP280;51031;50.912;9.242;2022-08-11T00:50:18;99796.94;;;28.25
64624;BMP280;51031;50.912;9.242;2022-08-11T00:50:46;99799.63;;;28.25
64624;BMP280;51031;50.912;9.242;2022-08-11T00:51:12;99797.94;;;28.24
64624;BMP280;51031;50.912;9.242;2022-08-11T00:51:42;99801.47;;;28.25
64624;BMP280;51031;50.912;9.242;2022-08-11T00:52:23;99801.63;;;28.23
64624;BMP280;51031;50.912;9.242;2022-08-11T00:53:02;99797.28;;;28.22
64624;BMP280;51031;50.912;9.242;2022-08-11T00:53:31;99797.47;;;28.21
64624;BMP280;51031;50.912;9.242;2022-08-11T00:53:59;99807.38;;;28.20
64624;BMP280;51031;50.912;9.242;2022-08-11T00:54:48;99805.69;;;28.19
64624;BMP280;51031;50.912;9.242;2022-08-11T00:55:35;99806.88;;;28.17
64624;BMP280;51031;50.912;9.242;2022-08-11T00:56:17;99798.31;;;28.13
64624;BMP280;51031;50.912;9.242;2022-08-11T00:57:05;99801.38;;;28.11
64624;BMP280;51031;50.912;9.242;2022-08-11T00:57:54;99805.06;;;28.10
64624;BMP280;51031;50.912;9.242;2022-08-11T00:59:25;99798.16;;;28.07
64624;BMP280;51031;50.912;9.242;2022-08-11T01:00:05;99798.16;;;28.07
64624;BMP280;51031;50.912;9.242;2022-08-11T01:00:31;99802.72;;;28.07
64624;BMP280;51031;50.912;9.242;2022-08-11T01:01:04;99797.31;;;28.07
64624;BMP280;51031;50.912;9.242;2022-08-11T01:01:33;99798.34;;;28.06
64624;BMP280;51031;50.912;9.242;2022-08-11T01:02:08;99802.72;;;28.07
64624;BMP280;51031;50.912;9.242;2022-08-11T01:02:43;99802.72;;;28.07
64624;BMP280;51031;50.912;9.242;2022-08-11T01:03:14;99797.31;;;28.07
64624;BMP280;51031;50.912;9.242;2022-08-11T01:03:51;99805.25;;;28.08
64624;BMP280;51031;50.912;9.242;2022-08-11T01:04:22;99798.00;;;28.09
64624;BMP280;51031;50.912;9.242;2022-08-11T01:04:59;99797.31;;;28.07
64624;BMP280;51031;50.912;9.242;2022-08-11T01:05:56;99797.31;;;28.07
64624;BMP280;51031;50.912;9.242;2022-08-11T01:06:30;99797.50;;;28.05
64624;BMP280;51031;50.912;9.242;2022-08-11T01:07:22;99798.34;;;28.06
64624;BMP280;51031;50.912;9.242;2022-08-11T01:09:39;99800.00;;;28.07
64624;BMP280;51031;50.912;9.242;2022-08-11T01:10:10;99796.34;;;28.08
64624;BMP280;51031;50.912;9.242;2022-08-11T01:10:50;99796.34;;;28.08
64624;BMP280;51031;50.912;9.242;2022-08-11T01:12:08;99792.63;;;28.09
64624;BMP280;51031;50.912;9.242;2022-08-11T01:12:48;99792.63;;;28.09
64624;BMP280;51031;50.912;9.242;2022-08-11T01:13:14;99796.13;;;28.09
64624;BMP280;51031;50.912;9.242;2022-08-11T01:13:46;99796.00;;;28.11
64624;BMP280;51031;50.912;9.242;2022-08-11T01:15:35;99793.09;;;28.12
64624;BMP280;51031;50.912;9.242;2022-08-11T01:16:11;99796.63;;;28.13
64624;BMP280;51031;50.912;9.242;2022-08-11T01:17:04;99799.34;;;28.13
64624;BMP280;51031;50.912;9.242;2022-08-11T01:18:59;99794.78;;;28.13
64624;BMP280;51031;50.912;9.242;2022-08-11T01:19:49;99797.31;;;28.14
64624;BMP280;51031;50.912;9.242;2022-08-11T01:20:12;99797.31;;;28.14
64624;BMP280;51031;50.912;9.242;2022-08-11T01:20:55;99791.94;;;28.14
64624;BMP280;51031;50.912;9.242;2022-08-11T01:21:40;99801.69;;;28.15
64624;BMP280;51031;50.912;9.242;2022-08-11T01:22:20;99796.28;;;28.15
64624;BMP280;51031;50.912;9.242;2022-08-11T01:23:02;99799.00;;;28.15
64624;BMP280;51031;50.912;9.242;2022-08-11T01:27:31;99799.16;;;28.14
64624;BMP280;51031;50.912;9.242;2022-08-11T01:29:26;99797.66;;;28.12
64624;BMP280;51031;50.912;9.242;2022-08-11T01:31:18;99804.56;;;28.06
64624;BMP280;51031;50.912;9.242;2022-08-11T01:34:01;99796.38;;;27.92
64624;BMP280;51031;50.912;9.242;2022-08-11T01:35:03;99787.44;;;27.84
64624;BMP280;51031;50.912;9.242;2022-08-11T01:35:43;99806.31;;;27.76
64624;BMP280;51031;50.912;9.242;2022-08-11T01:36:26;99807.50;;;27.73
64624;BMP280;51031;50.912;9.242;2022-08-11T01:36:59;99796.25;;;27.70
64624;BMP280;51031;50.912;9.242;2022-08-11T01:38:41;99803.47;;;27.61
64624;BMP280;51031;50.912;9.242;2022-08-11T01:39:18;99808.16;;;27.59
64624;BMP280;51031;50.912;9.242;2022-08-11T01:40:13;99806.84;;;27.56
64624;BMP280;51031;50.912;9.242;2022-08-11T01:40:50;99801.47;;;27.48
64624;BMP280;51031;50.912;9.242;2022-08-11T01:41:30;99805.84;;;27.41
64624;BMP280;51031;50.912;9.242;2022-08-11T01:42:28;99803.50;;;27.30
64624;BMP280;51031;50.912;9.242;2022-08-11T01:43:18;99800.75;;;27.22
64624;BMP280;51031;50.912;9.242;2022-08-11T01:44:17;99807.50;;;27.10
64624;BMP280;51031;50.912;9.242;2022-08-11T01:45:15;99807.16;;;26.98
64624;BMP280;51031;50.912;9.242;2022-08-11T01:45:36;99805.16;;;26.92
64624;BMP280;51031;50.912;9.242;2022-08-11T01:46:01;99815.53;;;26.87
64624;BMP280;51031;50.912;9.242;2022-08-11T01:46:23;99812.50;;;26.82
64624;BMP280;51031;50.912;9.242;2022-08-11T01:46:45;99811.13;;;26.78
64624;BMP280;51031;50.912;9.242;2022-08-11T01:47:13;99809.28;;;26.71
64624;BMP280;51031;50.912;9.242;2022-08-11T01:47:58;99813.41;;;26.57
64624;BMP280;51031;50.912;9.242;2022-08-11T01:48:25;99811.41;;;26.51
64624;BMP280;51031;50.912;9.242;2022-08-11T01:48:53;99810.19;;;26.46
64624;BMP280;51031;50.912;9.242;2022-08-11T01:49:16;99816.72;;;26.44
64624;BMP280;51031;50.912;9.242;2022-08-11T01:49:44;99813.53;;;26.40
64624;BMP280;51031;50.912;9.242;2022-08-11T01:50:13;99815.69;;;26.37
64624;BMP280;51031;50.912;9.242;2022-08-11T01:50:53;99810.63;;;26.34
64624;BMP280;51031;50.912;9.242;2022-08-11T01:51:23;99813.31;;;26.34
64624;BMP280;51031;50.912;9.242;2022-08-11T01:51:53;99812.81;;;26.30
64624;BMP280;51031;50.912;9.242;2022-08-11T01:52:19;99807.59;;;26.29
64624;BMP280;51031;50.912;9.242;2022-08-11T01:52:47;99805.94;;;26.28
64624;BMP280;51031;50.912;9.242;2022-08-11T01:53:20;99820.34;;;26.27
64624;BMP280;51031;50.912;9.242;2022-08-11T01:53:47;99814.13;;;26.26
64624;BMP280;51031;50.912;9.242;2022-08-11T01:54:13;99817.00;;;26.25
64624;BMP280;51031;50.912;9.242;2022-08-11T01:54:41;99814.81;;;26.20
64624;BMP280;51031;50.912;9.242;2022-08-11T01:55:08;99810.59;;;26.18
64624;BMP280;51031;50.912;9.242;2022-08-11T01:55:32;99811.75;;;26.16
64624;BMP280;51031;50.912;9.242;2022-08-11T01:55:53;99812.06;;;26.13
64624;BMP280;51031;50.912;9.242;2022-08-11T01:56:31;99807.00;;;26.10
64624;BMP280;51031;50.912;9.242;2022-08-11T01:56:59;99815.25;;;26.08
64624;BMP280;51031;50.912;9.242;2022-08-11T01:57:29;99806.44;;;26.06
64624;BMP280;51031;50.912;9.242;2022-08-11T01:57:52;99808.47;;;26.04
64624;BMP280;51031;50.912;9.242;2022-08-11T01:58:16;99812.19;;;26.03
64624;BMP280;51031;50.912;9.242;2022-08-11T01:58:38;99809.63;;;26.02
64624;BMP280;51031;50.912;9.242;2022-08-11T01:59:05;99815.84;;;26.02
64624;BMP280;51031;50.912;9.242;2022-08-11T01:59:27;99817.88;;;26.00
64624;BMP280;51031;50.912;9.242;2022-08-11T01:59:47;99818.19;;;25.97
64624;BMP280;51031;50.912;9.242;2022-08-11T02:00:08;99815.63;;;25.96
64624;BMP280;51031;50.912;9.242;2022-08-11T02:00:28;99817.47;;;25.95
64624;BMP280;51031;50.912;9.242;2022-08-11T02:00:53;99821.00;;;25.96
64624;BMP280;51031;50.912;9.242;2022-08-11T02:01:26;99819.16;;;25.96
64624;BMP280;51031;50.912;9.242;2022-08-11T02:02:16;99827.22;;;25.96
64624;BMP280;51031;50.912;9.242;2022-08-11T02:02:40;99825.53;;;25.95
64624;BMP280;51031;50.912;9.242;2022-08-11T02:03:07;99821.84;;;25.96
64624;BMP280;51031;50.912;9.242;2022-08-11T02:03:33;99827.22;;;25.96
64624;BMP280;51031;50.912;9.242;2022-08-11T02:03:56;99820.16;;;25.95
64624;BMP280;51031;50.912;9.242;2022-08-11T02:04:21;99822.84;;;25.95
64624;BMP280;51031;50.912;9.242;2022-08-11T02:04:46;99821.19;;;25.94
64624;BMP280;51031;50.912;9.242;2022-08-11T02:05:16;99822.19;;;25.93
64624;BMP280;51031;50.912;9.242;2022-08-11T02:05:49;99830.25;;;25.93
64624;BMP280;51031;50.912;9.242;2022-08-11T02:06:22;99820.47;;;25.92
64624;BMP280;51031;50.912;9.242;2022-08-11T02:07:11;99818.28;;;25.88
64624;BMP280;51031;50.912;9.242;2022-08-11T02:07:32;99822.13;;;25.86
64624;BMP280;51031;50.912;9.242;2022-08-11T02:08:04;99822.28;;;25.84
64624;BMP280;51031;50.912;9.242;2022-08-11T02:08:34;99823.63;;;25.80
64624;BMP280;51031;50.912;9.242;2022-08-11T02:09:04;99819.56;;;25.76
64624;BMP280;51031;50.912;9.242;2022-08-11T02:09:32;99827.75;;;25.75
64624;BMP280;51031;50.912;9.242;2022-08-11T02:10:03;99832.28;;;25.74
64624;BMP280;51031;50.912;9.242;2022-08-11T02:10:43;99829.63;;;25.74
64624;BMP280;51031;50.912;9.242;2022-08-11T02:11:24;99827.09;;;25.73
64624;BMP280;51031;50.912;9.242;2022-08-11T02:11:49;99822.72;;;25.72
64624;BMP280;51031;50.912;9.242;2022-08-11T02:12:14;99826.41;;;25.71
64624;BMP280;51031;50.912;9.242;2022-08-11T02:12:43;99823.03;;;25.69
64624;BMP280;51031;50.912;9.242;2022-08-11T02:13:06;99821.34;;;25.68
64624;BMP280;51031;50.912;9.242;2022-08-11T02:13:35;99823.50;;;25.64
64624;BMP280;51031;50.912;9.242;2022-08-11T02:13:57;99831.03;;;25.61
64624;BMP280;51031;50.912;9.242;2022-08-11T02:14:21;99826.97;;;25.57
64624;BMP280;51031;50.912;9.242;2022-08-11T02:14:45;99826.28;;;25.55
64624;BMP280;51031;50.912;9.242;2022-08-11T02:15:10;99831.13;;;25.52
64624;BMP280;51031;50.912;9.242;2022-08-11T02:15:29;99833.28;;;25.48
64624;BMP280;51031;50.912;9.242;2022-08-11T02:16:04;99827.34;;;25.45
64624;BMP280;51031;50.912;9.242;2022-08-11T02:16:30;99820.47;;;25.42
64624;BMP280;51031;50.912;9.242;2022-08-11T02:16:58;99826.81;;;25.41
64624;BMP280;51031;50.912;9.242;2022-08-11T02:17:18;99826.16;;;25.39
64624;BMP280;51031;50.912;9.242;2022-08-11T02:17:45;99827.13;;;25.38
64624;BMP280;51031;50.912;9.242;2022-08-11T02:18:09;99826.44;;;25.36
64624;BMP280;51031;50.912;9.242;2022-08-11T02:18:33;99824.78;;;25.35
64624;BMP280;51031;50.912;9.242;2022-08-11T02:19:22;99829.28;;;25.35
64624;BMP280;51031;50.912;9.242;2022-08-11T02:20:02;99831.59;;;25.30
64624;BMP280;51031;50.912;9.242;2022-08-11T02:20:45;99836.13;;;25.30
64624;BMP280;51031;50.912;9.242;2022-08-11T02:21:26;99830.22;;;25.26
64624;BMP280;51031;50.912;9.242;2022-08-11T02:22:05;99828.00;;;25.22
64624;BMP280;51031;50.912;9.242;2022-08-11T02:22:48;99821.94;;;25.20
64624;BMP280;51031;50.912;9.242;2022-08-11T02:23:28;99831.13;;;25.17
64624;BMP280;51031;50.912;9.242;2022-08-11T02:24:00;99832.31;;;25.15
64624;BMP280;51031;50.912;9.242;2022-08-11T02:24:34;99824.41;;;25.13
64624;BMP280;51031;50.912;9.242;2022-08-11T02:24:57;99829.63;;;25.15
64624;BMP280;51031;50.912;9.242;2022-08-11T02:25:20;99823.25;;;25.16
64624;BMP280;51031;50.912;9.242;2022-08-11T02:25:43;99825.09;;;25.15
64624;BMP280;51031;50.912;9.242;2022-08-11T02:26:04;99826.06;;;25.14
64624;BMP280;51031;50.912;9.242;2022-08-11T02:26:23;99825.25;;;25.14
64624;BMP280;51031;50.912;9.242;2022-08-11T02:26:41;99823.41;;;25.14
64624;BMP280;51031;50.912;9.242;2022-08-11T02:27:03;99820.03;;;25.12
64624;BMP280;51031;50.912;9.242;2022-08-11T02:27:33;99822.88;;;25.11
64624;BMP280;51031;50.912;9.242;2022-08-11T02:28:01;99825.84;;;25.08
64624;BMP280;51031;50.912;9.242;2022-08-11T02:28:23;99823.50;;;25.05
64624;BMP280;51031;50.912;9.242;2022-08-11T02:28:52;99829.84;;;25.04
64624;BMP280;51031;50.912;9.242;2022-08-11T02:29:17;99826.19;;;25.05
64624;BMP280;51031;50.912;9.242;2022-08-11T02:29:41;99822.50;;;25.06
64624;BMP280;51031;50.912;9.242;2022-08-11T02:30:03;99831.22;;;25.08
64624;BMP280;51031;50.912;9.242;2022-08-11T02:30:24;99825.72;;;25.09
64624;BMP280;51031;50.912;9.242;2022-08-11T02:30:49;99825.53;;;25.11
64624;BMP280;51031;50.912;9.242;2022-08-11T02:31:40;99830.78;;;25.12
64624;BMP280;51031;50.912;9.242;2022-08-11T02:32:31;99830.84;;;25.03
64624;BMP280;51031;50.912;9.242;2022-08-11T02:33:15;99822.88;;;24.94
64624;BMP280;51031;50.912;9.242;2022-08-11T02:33:40;99826.03;;;24.89
64624;BMP280;51031;50.912;9.242;2022-08-11T02:34:13;99821.78;;;24.87
64624;BMP280;51031;50.912;9.242;2022-08-11T02:34:43;99822.97;;;24.84
64624;BMP280;51031;50.912;9.242;2022-08-11T02:35:08;99821.56;;;24.80
64624;BMP280;51031;50.912;9.242;2022-08-11T02:35:31;99820.16;;;24.76
64624;BMP280;51031;50.912;9.242;2022-08-11T02:36:07;99828.88;;;24.78
64624;BMP280;51031;50.912;9.242;2022-08-11T02:36:37;99830.56;;;24.79
64624;BMP280;51031;50.912;9.242;2022-08-11T02:36:59;99824.94;;;24.82
64624;BMP280;51031;50.912;9.242;2022-08-11T02:37:24;99825.94;;;24.81
64624;BMP280;51031;50.912;9.242;2022-08-11T02:37:49;99824.09;;;24.82
64624;BMP280;51031;50.912;9.242;2022-08-11T02:38:18;99825.66;;;24.84
64624;BMP280;51031;50.912;9.242;2022-08-11T02:38:42;99822.78;;;24.86
64624;BMP280;51031;50.912;9.242;2022-08-11T02:39:05;99828.00;;;24.87
64624;BMP280;51031;50.912;9.242;2022-08-11T02:39:30;99822.63;;;24.87
64624;BMP280;51031;50.912;9.242;2022-08-11T02:40:03;99823.50;;;24.88
64624;BMP280;51031;50.912;9.242;2022-08-11T02:40:33;99827.03;;;24.88
64624;BMP280;51031;50.912;9.242;2022-08-11T02:40:59;99827.03;;;24.88
64624;BMP280;51031;50.912;9.242;2022-08-11T02:41:22;99826.84;;;24.90
64624;BMP280;51031;50.912;9.242;2022-08-11T02:42:06;99827.69;;;24.90
64624;BMP280;51031;50.912;9.242;2022-08-11T02:42:48;99828.41;;;24.92
64624;BMP280;51031;50.912;9.242;2022-08-11T02:43:19;99824.88;;;24.92
64624;BMP280;51031;50.912;9.242;2022-08-11T02:43:45;99821.19;;;24.93
64624;BMP280;51031;50.912;9.242;2022-08-11T02:44:19;99832.09;;;24.91
64624;BMP280;51031;50.912;9.242;2022-08-11T02:44:43;99826.84;;;24.90
64624;BMP280;51031;50.912;9.242;2022-08-11T02:45:15;99825.19;;;24.89
64624;BMP280;51031;50.912;9.242;2022-08-11T02:45:47;99833.34;;;24.87
64624;BMP280;51031;50.912;9.242;2022-08-11T02:46:17;99822.09;;;24.84
64624;BMP280;51031;50.912;9.242;2022-08-11T02:46:42;99824.09;;;24.82
64624;BMP280;51031;50.912;9.242;2022-08-11T02:47:06;99828.88;;;24.78
64624;BMP280;51031;50.912;9.242;2022-08-11T02:47:38;99834.25;;;24.78
64624;BMP280;51031;50.912;9.242;2022-08-11T02:48:03;99826.34;;;24.77
64624;BMP280;51031;50.912;9.242;2022-08-11T02:48:47;99829.91;;;24.77
64624;BMP280;51031;50.912;9.242;2022-08-11T02:49:35;99828.88;;;24.78
64624;BMP280;51031;50.912;9.242;2022-08-11T02:50:18;99824.22;;;24.80
64624;BMP280;51031;50.912;9.242;2022-08-11T02:50:41;99833.16;;;24.81
64624;BMP280;51031;50.912;9.242;2022-08-11T02:51:05;99829.31;;;24.83
64624;BMP280;51031;50.912;9.242;2022-08-11T02:51:31;99824.47;;;24.87
64624;BMP280;51031;50.912;9.242;2022-08-11T02:52:02;99828.69;;;24.89
64624;BMP280;51031;50.912;9.242;2022-08-11T02:52:28;99824.03;;;24.91